Time;durP1;ratioP1;P1;durP2;ratioP2;P2;SDS_P1;SDS_P2;PMS_P1;PMS_P2;Temp;Humidity;BMP_temperature;BMP_pressure;BME280_temperature;BME280_humidity;BME280_pressure;Samples;Min_cycle;Max_cycle;Signal;HPM_P1;HPM_P2
2022/05/14 00:01:09;;;;;;;1.23;1.13;;;;;;;;;;5046541;28;20033;-75
2022/05/14 00:03:38;;;;;;;0.47;0.47;;;;;;;;;;5045292;28;20032;-75
2022/05/14 00:06:05;;;;;;;0.43;0.40;;;;;;;;;;5045520;28;20108;-75
2022/05/14 00:08:31;;;;;;;1.05;0.60;;;;;;;;;;5040067;28;20033;-75
2022/05/14 00:13:42;;;;;;;0.35;0.35;;;;;;;;;;5043056;28;20116;-75
2022/05/14 00:16:09;;;;;;;1.45;0.35;;;;;;;;;;5041891;28;20127;-75
2022/05/14 00:18:36;;;;;;;0.98;0.85;;;;;;;;;;5044610;28;20531;-75
2022/05/14 00:21:02;;;;;;;0.57;0.52;;;;;;;;;;5040390;28;20032;-75
2022/05/14 00:23:27;;;;;;;1.08;0.98;;;;;;;;;;5043895;28;20382;-75
2022/05/14 00:25:53;;;;;;;1.88;0.57;;;;;;;;;;5046690;28;20087;-75
2022/05/14 00:28:19;;;;;;;0.50;0.50;;;;;;;;;;5046817;28;20502;-75
2022/05/14 00:30:45;;;;;;;0.35;0.35;;;;;;;;;;5044974;28;20028;-75
2022/05/14 00:33:12;;;;;;;1.80;0.75;;;;;;;;;;5044812;28;20036;-75
2022/05/14 00:35:38;;;;;;;0.70;0.40;;;;;;;;;;5046485;28;20082;-74
2022/05/14 00:38:04;;;;;;;1.27;0.70;;;;;;;;;;5048071;28;20032;-75
2022/05/14 00:40:30;;;;;;;0.73;0.70;;;;;;;;;;5044884;28;20044;-75
2022/05/14 00:42:56;;;;;;;0.65;0.65;;;;;;;;;;5041392;28;20013;-75
2022/05/14 00:45:22;;;;;;;0.55;0.50;;;;;;;;;;5047194;28;20384;-75
2022/05/14 00:47:53;;;;;;;0.60;0.60;;;;;;;;;;5042927;28;20028;-75
2022/05/14 00:50:39;;;;;;;2.20;1.00;;;;;;;;;;5047174;28;20033;-76
2022/05/14 00:53:10;;;;;;;3.00;1.20;;;;;;;;;;5046386;28;20159;-76
2022/05/14 00:55:37;;;;;;;11.00;0.70;;;;;;;;;;5046839;28;20495;-75
2022/05/14 00:58:03;;;;;;;4.85;1.50;;;;;;;;;;5046779;28;20048;-75
2022/05/14 01:00:30;;;;;;;0.70;0.70;;;;;;;;;;5047316;28;20023;-76
2022/05/14 01:02:56;;;;;;;1.17;0.65;;;;;;;;;;5043668;28;20025;-76
2022/05/14 01:05:23;;;;;;;1.55;0.80;;;;;;;;;;5046554;28;20052;-75
2022/05/14 01:07:50;;;;;;;1.70;1.10;;;;;;;;;;5045316;28;20155;-76
2022/05/14 01:10:18;;;;;;;0.57;0.57;;;;;;;;;;5041642;28;20056;-76
2022/05/14 01:12:47;;;;;;;0.30;0.30;;;;;;;;;;5039472;28;20107;-76
2022/05/14 01:15:15;;;;;;;0.70;0.40;;;;;;;;;;5047936;28;20507;-76
2022/05/14 01:17:41;;;;;;;1.38;1.15;;;;;;;;;;5040778;28;20436;-76
2022/05/14 01:20:08;;;;;;;1.85;0.73;;;;;;;;;;5040611;28;20499;-76
2022/05/14 01:22:40;;;;;;;4.05;1.05;;;;;;;;;;5043733;28;20116;-76
2022/05/14 01:27:58;;;;;;;;;;;;;;;;;;5044532;28;20083;-76
2022/05/14 01:30:23;;;;;;;0.40;0.30;;;;;;;;;;5036586;28;19934;-76
2022/05/14 01:33:04;;;;;;;4.28;1.60;;;;;;;;;;5047136;28;20112;-75
2022/05/14 01:35:30;;;;;;;0.50;0.47;;;;;;;;;;5046598;28;20108;-75
2022/05/14 01:37:57;;;;;;;0.93;0.90;;;;;;;;;;5046312;28;20425;-75
2022/05/14 01:40:23;;;;;;;0.50;0.50;;;;;;;;;;5052448;28;20117;-76
2022/05/14 01:42:48;;;;;;;5.70;0.77;;;;;;;;;;5046146;28;20021;-76
2022/05/14 01:45:14;;;;;;;4.65;1.00;;;;;;;;;;5045608;28;20439;-76
2022/05/14 01:47:40;;;;;;;0.80;0.38;;;;;;;;;;5051060;28;20025;-75
2022/05/14 01:50:06;;;;;;;0.40;0.40;;;;;;;;;;5050167;28;20033;-76
2022/05/14 01:52:32;;;;;;;1.98;1.55;;;;;;;;;;5049454;28;20032;-76
2022/05/14 01:54:58;;;;;;;1.63;0.95;;;;;;;;;;5041435;28;20080;-75
2022/05/14 01:57:24;;;;;;;7.80;1.08;;;;;;;;;;5051131;28;20479;-76
2022/05/14 01:59:50;;;;;;;0.57;0.57;;;;;;;;;;5048063;28;20029;-76
2022/05/14 02:02:16;;;;;;;0.57;0.57;;;;;;;;;;5049551;28;20420;-76
2022/05/14 02:04:42;;;;;;;1.42;0.85;;;;;;;;;;5049988;28;20497;-76
2022/05/14 02:07:08;;;;;;;2.30;0.95;;;;;;;;;;5049950;28;20032;-75
2022/05/14 02:09:33;;;;;;;2.65;1.40;;;;;;;;;;5051306;28;20584;-75
2022/05/14 02:12:01;;;;;;;5.00;0.93;;;;;;;;;;5048163;28;20035;-75
2022/05/14 02:14:27;;;;;;;1.35;1.15;;;;;;;;;;5050993;28;20032;-76
2022/05/14 02:16:53;;;;;;;0.30;0.30;;;;;;;;;;5049428;28;20029;-76
2022/05/14 02:19:18;;;;;;;3.13;1.85;;;;;;;;;;5048158;28;20031;-75
2022/05/14 02:21:45;;;;;;;0.80;0.70;;;;;;;;;;5048320;28;20396;-76
2022/05/14 02:24:11;;;;;;;1.05;0.95;;;;;;;;;;5048681;28;20040;-76
2022/05/14 02:26:37;;;;;;;0.43;0.43;;;;;;;;;;5047158;28;20071;-76
2022/05/14 02:29:03;;;;;;;0.47;0.47;;;;;;;;;;5044989;28;20029;-75
2022/05/14 02:31:29;;;;;;;0.70;0.70;;;;;;;;;;5047432;28;20545;-76
2022/05/14 02:33:55;;;;;;;1.13;1.08;;;;;;;;;;5050446;28;20024;-76
2022/05/14 02:36:21;;;;;;;0.55;0.55;;;;;;;;;;5049649;28;20033;-76
2022/05/14 02:38:47;;;;;;;0.45;0.30;;;;;;;;;;5048870;28;20116;-76
2022/05/14 02:41:13;;;;;;;0.98;0.98;;;;;;;;;;5053728;28;20553;-76
2022/05/14 02:43:40;;;;;;;6.38;1.48;;;;;;;;;;5043069;28;20029;-76
2022/05/14 02:46:06;;;;;;;1.10;0.88;;;;;;;;;;5048346;28;20128;-76
2022/05/14 02:48:33;;;;;;;0.75;0.63;;;;;;;;;;5048236;28;20056;-76
2022/05/14 02:50:59;;;;;;;1.85;1.08;;;;;;;;;;5048556;28;20555;-76
2022/05/14 02:53:25;;;;;;;0.50;0.50;;;;;;;;;;5044646;28;20063;-76
2022/05/14 02:55:51;;;;;;;1.67;0.98;;;;;;;;;;5048673;28;20033;-75
2022/05/14 02:59:06;;;;;;;0.85;0.73;;;;;;;;;;5042526;28;20087;-75
2022/05/14 03:01:03;;;;;;;1.02;0.93;;;;;;;;;;5046600;28;20094;-75
2022/05/14 03:03:29;;;;;;;1.60;1.30;;;;;;;;;;5047585;28;20025;-75
2022/05/14 03:05:55;;;;;;;1.75;1.15;;;;;;;;;;5045183;28;20101;-75
2022/05/14 03:08:21;;;;;;;3.05;2.15;;;;;;;;;;5053837;28;20025;-75
2022/05/14 03:10:47;;;;;;;0.95;0.63;;;;;;;;;;5049178;28;20052;-75
2022/05/14 03:13:13;;;;;;;0.95;0.82;;;;;;;;;;5045762;28;20168;-76
2022/05/14 03:15:38;;;;;;;5.75;0.73;;;;;;;;;;5045306;28;20021;-75
2022/05/14 03:18:04;;;;;;;0.60;0.60;;;;;;;;;;5038684;28;20056;-76
2022/05/14 03:20:30;;;;;;;0.98;0.55;;;;;;;;;;5043799;28;20407;-75
2022/05/14 03:22:57;;;;;;;0.80;0.57;;;;;;;;;;5046360;28;20044;-75
2022/05/14 03:25:24;;;;;;;1.65;0.93;;;;;;;;;;5048950;28;20013;-75
2022/05/14 03:27:50;;;;;;;1.17;1.08;;;;;;;;;;5049146;28;20220;-75
2022/05/14 03:30:17;;;;;;;1.52;1.05;;;;;;;;;;5048854;28;20041;-75
2022/05/14 03:32:43;;;;;;;0.68;0.68;;;;;;;;;;5046546;28;20057;-76
2022/05/14 03:35:09;;;;;;;0.40;0.40;;;;;;;;;;5046323;28;20067;-74
2022/05/14 03:37:35;;;;;;;2.30;1.33;;;;;;;;;;5048582;28;20411;-75
2022/05/14 03:40:01;;;;;;;0.80;0.80;;;;;;;;;;5053293;28;20435;-75
2022/05/14 03:42:27;;;;;;;1.38;1.05;;;;;;;;;;5047593;28;20025;-76
2022/05/14 03:44:54;;;;;;;0.40;0.40;;;;;;;;;;5038773;28;20117;-75
2022/05/14 03:47:20;;;;;;;1.05;0.50;;;;;;;;;;5045214;28;20067;-75
2022/05/14 03:49:46;;;;;;;2.38;0.80;;;;;;;;;;5048593;28;20622;-75
2022/05/14 03:52:12;;;;;;;0.13;0.13;;;;;;;;;;5046574;28;20068;-75
2022/05/14 03:54:38;;;;;;;0.85;0.68;;;;;;;;;;5047744;28;20033;-75
2022/05/14 03:57:06;;;;;;;1.45;1.23;;;;;;;;;;5046342;28;20078;-75
2022/05/14 03:59:33;;;;;;;0.70;0.52;;;;;;;;;;5047563;28;20032;-75
2022/05/14 04:01:59;;;;;;;0.30;0.30;;;;;;;;;;5047821;28;20083;-75
2022/05/14 04:04:25;;;;;;;2.00;0.95;;;;;;;;;;5048492;28;20045;-75
2022/05/14 04:06:52;;;;;;;2.80;1.02;;;;;;;;;;5046987;28;20029;-75
2022/05/14 04:09:18;;;;;;;0.65;0.47;;;;;;;;;;5045767;28;20029;-75
2022/05/14 04:11:44;;;;;;;1.17;1.00;;;;;;;;;;5048129;28;20037;-75
2022/05/14 04:14:21;;;;;;;1.00;0.77;;;;;;;;;;5047373;28;20032;-75
2022/05/14 04:16:46;;;;;;;0.60;0.60;;;;;;;;;;5048179;28;20514;-75
2022/05/14 04:19:12;;;;;;;1.23;0.60;;;;;;;;;;5045715;28;20036;-76
2022/05/14 04:21:38;;;;;;;1.42;0.93;;;;;;;;;;5048046;28;20028;-76
2022/05/14 04:24:05;;;;;;;3.42;1.73;;;;;;;;;;5047799;28;20383;-76
2022/05/14 04:26:31;;;;;;;1.08;0.65;;;;;;;;;;5046662;28;20028;-75
2022/05/14 04:28:57;;;;;;;3.05;1.25;;;;;;;;;;5043191;28;20127;-75
2022/05/14 04:31:23;;;;;;;1.60;0.98;;;;;;;;;;5043297;28;20082;-75
2022/05/14 04:33:49;;;;;;;7.95;0.82;;;;;;;;;;5045498;28;20384;-75
2022/05/14 04:36:16;;;;;;;0.95;0.30;;;;;;;;;;5046697;28;20476;-75
2022/05/14 04:38:42;;;;;;;0.90;0.90;;;;;;;;;;5047186;28;20033;-75
2022/05/14 04:41:08;;;;;;;0.10;0.10;;;;;;;;;;5044973;28;20040;-75
2022/05/14 04:43:34;;;;;;;0.77;0.77;;;;;;;;;;5047096;28;20770;-75
2022/05/14 04:46:00;;;;;;;0.50;0.45;;;;;;;;;;5045714;28;20028;-75
2022/05/14 04:48:26;;;;;;;4.00;1.15;;;;;;;;;;5048299;28;20615;-75
2022/05/14 04:50:54;;;;;;;1.27;0.57;;;;;;;;;;5045475;28;20033;-74
2022/05/14 04:53:19;;;;;;;1.17;0.63;;;;;;;;;;5045203;28;20108;-75
2022/05/14 04:55:47;;;;;;;0.70;0.47;;;;;;;;;;5041539;28;20467;-75
2022/05/14 04:58:13;;;;;;;2.92;0.95;;;;;;;;;;5048224;28;20036;-75
2022/05/14 05:00:41;;;;;;;1.42;1.02;;;;;;;;;;5045705;28;20017;-75
2022/05/14 05:03:19;;;;;;;1.08;0.43;;;;;;;;;;5045952;28;20108;-75
2022/05/14 05:05:52;;;;;;;17.92;1.88;;;;;;;;;;5043976;28;20481;-75
2022/05/14 05:08:19;;;;;;;0.28;0.28;;;;;;;;;;5046335;28;20025;-76
2022/05/14 05:10:45;;;;;;;0.98;0.93;;;;;;;;;;5044970;28;20040;-75
2022/05/14 05:13:12;;;;;;;0.98;0.85;;;;;;;;;;5044246;28;20025;-76
2022/05/14 05:15:38;;;;;;;0.50;0.50;;;;;;;;;;5048282;28;20067;-76
2022/05/14 05:18:04;;;;;;;0.40;0.40;;;;;;;;;;5044960;28;20033;-76
2022/05/14 05:20:30;;;;;;;0.57;0.57;;;;;;;;;;5045787;28;20120;-76
2022/05/14 05:22:56;;;;;;;0.47;0.47;;;;;;;;;;5048219;28;20336;-76
2022/05/14 05:25:22;;;;;;;0.52;0.52;;;;;;;;;;5052076;28;20519;-79
2022/05/14 05:27:48;;;;;;;1.00;0.90;;;;;;;;;;5051220;28;20024;-78
2022/05/14 05:30:14;;;;;;;0.68;0.68;;;;;;;;;;5049159;28;20021;-78
2022/05/14 05:32:40;;;;;;;4.15;0.85;;;;;;;;;;5050205;28;20032;-79
2022/05/14 05:35:07;;;;;;;1.45;0.60;;;;;;;;;;5049829;28;20029;-80
2022/05/14 05:37:33;;;;;;;0.63;0.63;;;;;;;;;;5050382;28;20087;-80
2022/05/14 05:39:59;;;;;;;1.05;0.88;;;;;;;;;;5049419;28;20035;-80
2022/05/14 05:42:25;;;;;;;0.38;0.38;;;;;;;;;;5051223;28;20032;-80
2022/05/14 05:44:51;;;;;;;1.88;0.52;;;;;;;;;;5049552;28;20086;-79
2022/05/14 05:47:17;;;;;;;1.92;0.95;;;;;;;;;;5040274;28;20141;-79
2022/05/14 05:49:43;;;;;;;0.32;0.32;;;;;;;;;;5045929;28;20029;-78
2022/05/14 05:52:11;;;;;;;1.45;1.10;;;;;;;;;;5050291;28;20487;-78
2022/05/14 05:57:28;;;;;;;0.40;0.32;;;;;;;;;;5044649;28;20082;-79
2022/05/14 05:59:54;;;;;;;0.40;0.40;;;;;;;;;;5040608;28;20057;-81
2022/05/14 06:02:21;;;;;;;0.80;0.80;;;;;;;;;;5048983;28;20130;-81
2022/05/14 06:04:47;;;;;;;3.15;1.75;;;;;;;;;;5047387;28;20133;-79
2022/05/14 06:07:13;;;;;;;0.80;0.50;;;;;;;;;;5046250;28;20112;-78
2022/05/14 06:09:39;;;;;;;1.65;0.50;;;;;;;;;;5047891;28;20471;-78
2022/05/14 06:12:06;;;;;;;1.38;1.27;;;;;;;;;;5048520;28;20091;-79
2022/05/14 06:14:32;;;;;;;0.40;0.30;;;;;;;;;;5047566;28;20028;-80
2022/05/14 06:16:58;;;;;;;0.47;0.47;;;;;;;;;;5045936;28;20041;-79
2022/05/14 06:19:24;;;;;;;0.60;0.60;;;;;;;;;;5044719;28;20120;-79
2022/05/14 06:21:50;;;;;;;1.50;0.93;;;;;;;;;;5047550;28;20439;-80
2022/05/14 06:24:16;;;;;;;0.38;0.38;;;;;;;;;;5038271;28;20025;-79
2022/05/14 06:26:42;;;;;;;1.48;0.68;;;;;;;;;;5046671;28;20029;-77
2022/05/14 06:29:08;;;;;;;1.85;1.10;;;;;;;;;;5033473;28;20032;-77
2022/05/14 06:31:34;;;;;;;1.25;1.00;;;;;;;;;;5033997;28;20043;-77
2022/05/14 06:34:00;;;;;;;0.57;0.57;;;;;;;;;;5039705;28;20115;-77
2022/05/14 06:36:26;;;;;;;0.63;0.40;;;;;;;;;;5048728;28;20112;-76
2022/05/14 06:38:52;;;;;;;0.93;0.75;;;;;;;;;;5043879;28;20039;-77
2022/05/14 06:41:18;;;;;;;0.75;0.63;;;;;;;;;;5047071;28;20060;-77
2022/05/14 06:43:44;;;;;;;2.17;1.15;;;;;;;;;;5044121;28;20049;-77
2022/05/14 06:46:11;;;;;;;0.32;0.30;;;;;;;;;;5045840;28;20043;-75
2022/05/14 06:48:37;;;;;;;1.90;0.88;;;;;;;;;;5047832;28;20042;-75
2022/05/14 06:51:05;;;;;;;2.92;1.15;;;;;;;;;;5047539;28;20021;-76
2022/05/14 06:53:31;;;;;;;1.33;0.65;;;;;;;;;;5049166;28;20025;-75
2022/05/14 06:55:58;;;;;;;1.20;1.10;;;;;;;;;;5041855;28;20518;-76
2022/05/14 06:58:27;;;;;;;0.52;0.52;;;;;;;;;;5042105;28;20036;-75
2022/05/14 07:00:53;;;;;;;1.63;1.15;;;;;;;;;;5042557;28;20029;-76
2022/05/14 07:08:48;;;;;;;0.63;0.63;;;;;;;;;;5041527;28;20124;-76
2022/05/14 07:11:14;;;;;;;0.28;0.28;;;;;;;;;;5048181;28;20044;-75
2022/05/14 07:13:40;;;;;;;0.88;0.77;;;;;;;;;;5049646;28;20021;-77
2022/05/14 07:16:06;;;;;;;4.22;1.05;;;;;;;;;;5048693;28;20522;-76
2022/05/14 07:18:33;;;;;;;6.35;0.98;;;;;;;;;;5042349;28;20032;-84
2022/05/14 07:20:59;;;;;;;1.65;0.82;;;;;;;;;;5042667;28;20032;-76
2022/05/14 07:23:25;;;;;;;2.70;1.38;;;;;;;;;;5041871;28;20025;-75
2022/05/14 07:25:51;;;;;;;1.25;1.15;;;;;;;;;;5045352;28;20025;-77
2022/05/14 07:28:17;;;;;;;0.10;0.10;;;;;;;;;;5036777;28;20074;-79
2022/05/14 07:30:43;;;;;;;1.48;0.70;;;;;;;;;;5037418;28;20029;-79
2022/05/14 07:33:09;;;;;;;1.73;0.95;;;;;;;;;;5038147;28;20075;-79
2022/05/14 07:35:36;;;;;;;0.22;0.22;;;;;;;;;;5034807;28;20057;-79
2022/05/14 07:38:03;;;;;;;0.80;0.80;;;;;;;;;;5042803;28;20021;-78
2022/05/14 07:40:30;;;;;;;0.50;0.50;;;;;;;;;;5039957;28;20036;-78
2022/05/14 07:42:58;;;;;;;0.52;0.52;;;;;;;;;;5041691;28;20025;-80
2022/05/14 07:45:29;;;;;;;0.38;0.38;;;;;;;;;;5040449;28;20527;-79
2022/05/14 07:47:57;;;;;;;0.47;0.47;;;;;;;;;;5043924;28;20017;-76
2022/05/14 07:50:23;;;;;;;1.25;0.90;;;;;;;;;;5040727;28;20067;-79
2022/05/14 07:52:51;;;;;;;1.73;1.42;;;;;;;;;;5048820;28;20083;-75
2022/05/14 07:55:17;;;;;;;0.77;0.77;;;;;;;;;;5046113;28;20027;-79
2022/05/14 07:57:43;;;;;;;3.92;1.55;;;;;;;;;;5033203;28;20025;-75
2022/05/14 08:00:09;;;;;;;0.60;0.60;;;;;;;;;;5040666;28;20044;-78
2022/05/14 08:02:35;;;;;;;0.60;0.60;;;;;;;;;;5041149;28;20174;-80
2022/05/14 08:05:03;;;;;;;1.88;0.75;;;;;;;;;;5031786;28;20238;-75
2022/05/14 08:07:29;;;;;;;1.02;0.82;;;;;;;;;;5042927;28;20120;-82
2022/05/14 08:09:55;;;;;;;0.88;0.88;;;;;;;;;;5041098;28;20027;-75
2022/05/14 08:12:21;;;;;;;0.75;0.57;;;;;;;;;;5042549;28;20036;-75
2022/05/14 08:14:47;;;;;;;3.97;0.93;;;;;;;;;;5046097;28;20033;-75
2022/05/14 08:17:13;;;;;;;0.20;0.20;;;;;;;;;;5045965;28;20028;-75
2022/05/14 08:19:39;;;;;;;1.00;0.60;;;;;;;;;;5043270;28;20525;-75
2022/05/14 08:24:50;;;;;;;0.85;0.85;;;;;;;;;;5045027;28;20036;-76
2022/05/14 08:27:16;;;;;;;0.60;0.60;;;;;;;;;;5041445;28;20020;-75
2022/05/14 08:29:44;;;;;;;0.65;0.57;;;;;;;;;;5035701;28;20103;-74
2022/05/14 08:32:10;;;;;;;1.23;1.10;;;;;;;;;;5034047;28;20029;-75
2022/05/14 08:34:36;;;;;;;3.22;0.70;;;;;;;;;;5042152;28;20495;-74
2022/05/14 08:37:02;;;;;;;7.28;0.80;;;;;;;;;;5043447;28;20040;-77
2022/05/14 08:39:28;;;;;;;0.68;0.68;;;;;;;;;;5040521;28;20493;-76
2022/05/14 08:42:06;;;;;;;2.90;0.63;;;;;;;;;;5039760;28;20036;-78
2022/05/14 08:44:34;;;;;;;0.82;0.73;;;;;;;;;;5035551;28;20025;-79
2022/05/14 08:47:03;;;;;;;0.30;0.30;;;;;;;;;;5044918;28;20037;-83
2022/05/14 08:49:37;;;;;;;0.70;0.55;;;;;;;;;;5036821;28;21915;-84
2022/05/14 08:52:06;;;;;;;2.17;1.65;;;;;;;;;;5036261;28;20035;-76
2022/05/14 08:54:33;;;;;;;2.10;0.57;;;;;;;;;;5039292;28;20554;-86
2022/05/14 08:57:04;;;;;;;0.55;0.55;;;;;;;;;;5041978;28;20036;-87
2022/05/14 08:59:38;;;;;;;1.08;0.90;;;;;;;;;;5042265;28;20044;-85
2022/05/14 09:02:13;;;;;;;0.73;0.73;;;;;;;;;;5047060;28;20408;-84
2022/05/14 09:04:39;;;;;;;7.43;1.13;;;;;;;;;;5035424;28;20138;-85
2022/05/14 09:07:06;;;;;;;1.02;0.93;;;;;;;;;;5040295;28;20025;-84
2022/05/14 09:09:32;;;;;;;1.10;0.60;;;;;;;;;;5050991;28;20125;-80
2022/05/14 09:12:03;;;;;;;1.95;1.25;;;;;;;;;;5046834;28;20103;-80
2022/05/14 09:14:52;;;;;;;0.95;0.30;;;;;;;;;;5042408;28;20439;-80
2022/05/14 09:17:20;;;;;;;1.27;0.90;;;;;;;;;;5031111;28;20530;-80
2022/05/14 09:19:47;;;;;;;8.55;2.13;;;;;;;;;;5039413;28;20478;-81
2022/05/14 09:22:22;;;;;;;1.38;1.27;;;;;;;;;;5045746;28;20066;-83
2022/05/14 09:24:53;;;;;;;0.50;0.50;;;;;;;;;;5048113;28;20036;-80
2022/05/14 09:27:23;;;;;;;2.83;1.02;;;;;;;;;;5046843;28;20033;-82
2022/05/14 09:29:53;;;;;;;1.02;0.95;;;;;;;;;;5048515;28;20032;-81
2022/05/14 09:32:22;;;;;;;0.38;0.38;;;;;;;;;;5039735;28;20021;-82
2022/05/14 09:34:48;;;;;;;6.53;0.73;;;;;;;;;;5044551;28;20025;-82
2022/05/14 09:37:18;;;;;;;0.55;0.55;;;;;;;;;;5044148;28;20744;-88
2022/05/14 09:39:56;;;;;;;3.88;0.45;;;;;;;;;;5048260;28;20395;-84
2022/05/14 09:42:23;;;;;;;0.17;0.17;;;;;;;;;;5043322;28;20032;-81
2022/05/14 09:44:51;;;;;;;4.07;0.45;;;;;;;;;;5048146;28;20021;-77
2022/05/14 09:47:30;;;;;;;5.95;0.47;;;;;;;;;;5042107;28;20040;-76
2022/05/14 09:50:00;;;;;;;0.38;0.38;;;;;;;;;;5047635;28;20025;-75
2022/05/14 09:52:29;;;;;;;0.43;0.43;;;;;;;;;;5047403;28;20025;-75
2022/05/14 09:54:55;;;;;;;0.22;0.22;;;;;;;;;;5044506;28;20082;-80
2022/05/14 09:57:39;;;;;;;5.65;0.57;;;;;;;;;;5049167;28;20473;-83
2022/05/14 10:00:16;;;;;;;2.25;1.08;;;;;;;;;;5039022;28;20120;-77
2022/05/14 10:03:06;;;;;;;0.52;0.52;;;;;;;;;;5047298;28;20486;-79
2022/05/14 10:05:37;;;;;;;1.00;0.70;;;;;;;;;;5043835;28;20057;-78
2022/05/14 10:08:33;;;;;;;4.30;0.93;;;;;;;;;;5035147;28;20037;-78
2022/05/14 10:11:19;;;;;;;1.50;0.80;;;;;;;;;;4963930;28;20039;-78
2022/05/14 10:13:45;;;;;;;0.82;0.60;;;;;;;;;;5044746;28;21310;-79
2022/05/14 10:16:18;;;;;;;1.27;1.15;;;;;;;;;;5052875;28;20096;-78
2022/05/14 10:18:44;;;;;;;1.13;0.73;;;;;;;;;;5047216;28;20033;-76
2022/05/14 10:21:27;;;;;;;0.38;0.38;;;;;;;;;;5049226;28;20070;-85
2022/05/14 10:26:58;;;;;;;1.42;1.00;;;;;;;;;;5048106;28;20525;-78
2022/05/14 10:29:44;;;;;;;8.90;0.88;;;;;;;;;;5050420;28;20044;-83
2022/05/14 10:32:12;;;;;;;0.38;0.38;;;;;;;;;;5034645;28;20518;-76
2022/05/14 10:34:57;;;;;;;0.85;0.43;;;;;;;;;;5042921;28;20365;-80
2022/05/14 10:37:23;;;;;;;0.20;0.20;;;;;;;;;;5052453;28;20024;-84
2022/05/14 10:40:07;;;;;;;5.70;1.25;;;;;;;;;;5049163;28;20048;-79
2022/05/14 10:42:47;;;;;;;0.93;0.73;;;;;;;;;;5047169;28;20120;-75
2022/05/14 10:45:14;;;;;;;12.10;1.67;;;;;;;;;;5041027;28;20017;-75
2022/05/14 10:47:44;;;;;;;2.55;1.27;;;;;;;;;;5040071;28;20025;-78
2022/05/14 10:50:14;;;;;;;1.55;0.90;;;;;;;;;;5042869;28;20048;-78
2022/05/14 10:52:41;;;;;;;0.98;0.93;;;;;;;;;;5049610;28;20028;-75
2022/05/14 10:55:21;;;;;;;1.50;0.80;;;;;;;;;;5051235;28;20254;-81
2022/05/14 10:57:49;;;;;;;1.30;1.00;;;;;;;;;;5038876;28;20025;-75
2022/05/14 11:00:21;;;;;;;3.10;1.20;;;;;;;;;;5039558;28;20083;-80
2022/05/14 11:02:58;;;;;;;1.02;0.85;;;;;;;;;;5049365;28;20029;-77
2022/05/14 11:05:31;;;;;;;0.28;0.28;;;;;;;;;;5042851;28;20040;-76
2022/05/14 11:08:08;;;;;;;3.47;1.33;;;;;;;;;;5045959;28;20721;-76
2022/05/14 11:10:35;;;;;;;0.63;0.60;;;;;;;;;;5043319;28;20053;-77
2022/05/14 11:13:23;;;;;;;0.50;0.50;;;;;;;;;;5051271;28;20553;-76
2022/05/14 11:15:59;;;;;;;0.85;0.73;;;;;;;;;;5049442;28;20029;-77
2022/05/14 11:18:25;;;;;;;1.45;1.17;;;;;;;;;;5044468;28;20425;-75
2022/05/14 11:20:54;;;;;;;5.32;1.02;;;;;;;;;;5046638;28;20024;-78
2022/05/14 11:23:20;;;;;;;0.60;0.55;;;;;;;;;;5050146;28;20021;-79
2022/05/14 11:25:46;;;;;;;0.80;0.80;;;;;;;;;;5046218;28;20024;-76
2022/05/14 11:28:18;;;;;;;0.82;0.45;;;;;;;;;;5036398;28;20029;-75
2022/05/14 11:30:55;;;;;;;0.57;0.30;;;;;;;;;;5047975;28;20060;-76
2022/05/14 11:33:24;;;;;;;1.75;0.77;;;;;;;;;;5050244;28;20040;-76
2022/05/14 11:35:51;;;;;;;1.92;0.82;;;;;;;;;;5044499;28;20398;-77
2022/05/14 11:38:29;;;;;;;0.85;0.85;;;;;;;;;;5048287;28;20085;-77
2022/05/14 11:40:59;;;;;;;1.05;0.55;;;;;;;;;;5045420;28;20499;-76
2022/05/14 11:43:30;;;;;;;0.55;0.55;;;;;;;;;;5048616;28;20053;-77
2022/05/14 11:45:56;;;;;;;;;;;;;;;;;;5048370;28;20047;-76
2022/05/14 11:48:25;;;;;;;2.03;1.23;;;;;;;;;;5049243;28;19952;-76
2022/05/14 11:50:57;;;;;;;0.73;0.52;;;;;;;;;;5048467;28;20028;-77
2022/05/14 11:53:38;;;;;;;7.13;1.42;;;;;;;;;;5037631;28;20028;-76
2022/05/14 11:56:09;;;;;;;0.50;0.45;;;;;;;;;;5044969;28;20029;-76
2022/05/14 11:58:38;;;;;;;0.65;0.65;;;;;;;;;;5050684;28;20515;-77
2022/05/14 12:01:09;;;;;;;0.52;0.50;;;;;;;;;;5047686;28;20048;-77
2022/05/14 12:03:44;;;;;;;0.60;0.60;;;;;;;;;;5045305;28;20052;-83
2022/05/14 12:06:26;;;;;;;0.55;0.45;;;;;;;;;;5043423;28;20048;-77
2022/05/14 12:09:01;;;;;;;3.65;1.52;;;;;;;;;;5035256;28;20120;-74
2022/05/14 12:11:35;;;;;;;1.00;0.75;;;;;;;;;;5042175;28;20033;-76
2022/05/14 12:14:04;;;;;;;0.80;0.80;;;;;;;;;;5047766;28;20031;-78
2022/05/14 12:16:41;;;;;;;0.75;0.40;;;;;;;;;;5047874;28;20116;-76
2022/05/14 12:19:12;;;;;;;1.05;0.77;;;;;;;;;;5047692;28;20138;-77
2022/05/14 12:21:38;;;;;;;3.50;1.02;;;;;;;;;;5038105;28;20044;-77
2022/05/14 12:24:05;;;;;;;0.88;0.88;;;;;;;;;;5042496;28;20403;-77
2022/05/14 12:26:32;;;;;;;3.83;1.38;;;;;;;;;;5045870;28;20029;-77
2022/05/14 12:29:00;;;;;;;1.45;0.88;;;;;;;;;;5050178;28;20033;-77
2022/05/14 12:34:15;;;;;;;4.45;0.80;;;;;;;;;;5048226;28;20058;-80
2022/05/14 12:36:54;;;;;;;1.10;1.00;;;;;;;;;;5039586;28;20032;-79
2022/05/14 12:39:24;;;;;;;2.47;1.05;;;;;;;;;;5042771;28;20043;-77
2022/05/14 12:41:55;;;;;;;4.25;0.52;;;;;;;;;;5049622;28;20487;-73
2022/05/14 12:44:23;;;;;;;1.05;0.88;;;;;;;;;;5046072;28;20036;-76
2022/05/14 12:46:54;;;;;;;2.80;1.17;;;;;;;;;;5039646;28;20506;-77
2022/05/14 12:49:27;;;;;;;1.23;0.90;;;;;;;;;;5047584;28;20110;-76
2022/05/14 12:51:55;;;;;;;3.05;0.60;;;;;;;;;;5039208;28;20495;-76
2022/05/14 12:54:28;;;;;;;1.40;1.00;;;;;;;;;;5048334;28;20132;-76
2022/05/14 12:56:57;;;;;;;1.55;1.10;;;;;;;;;;5044546;28;20033;-74
2022/05/14 12:59:23;;;;;;;1.17;0.80;;;;;;;;;;5037792;28;20054;-77
2022/05/14 13:01:51;;;;;;;2.97;0.85;;;;;;;;;;5046313;28;20124;-76
2022/05/14 13:04:18;;;;;;;0.77;0.73;;;;;;;;;;5044243;28;20049;-78
2022/05/14 13:06:45;;;;;;;1.38;0.90;;;;;;;;;;5042111;28;20376;-77
2022/05/14 13:09:11;;;;;;;1.02;0.75;;;;;;;;;;5045575;28;20029;-77
2022/05/14 13:11:48;;;;;;;0.60;0.40;;;;;;;;;;5046448;28;20118;-77
2022/05/14 13:14:27;;;;;;;2.30;1.17;;;;;;;;;;5035152;28;20033;-77
2022/05/14 13:16:55;;;;;;;5.63;1.42;;;;;;;;;;5044740;28;20020;-77
2022/05/14 13:19:23;;;;;;;1.60;0.95;;;;;;;;;;5035478;28;20173;-77
2022/05/14 13:21:51;;;;;;;5.22;1.15;;;;;;;;;;5041158;28;20039;-76
2022/05/14 13:24:20;;;;;;;6.43;0.80;;;;;;;;;;5039198;28;20147;-77
2022/05/14 13:26:47;;;;;;;1.80;0.88;;;;;;;;;;5041135;28;20041;-77
2022/05/14 13:29:16;;;;;;;1.80;1.30;;;;;;;;;;5041827;28;20154;-77
2022/05/14 13:31:42;;;;;;;0.45;0.45;;;;;;;;;;5037839;28;20273;-76
2022/05/14 13:37:11;;;;;;;1.58;0.80;;;;;;;;;;5044446;28;20040;-79
2022/05/14 13:39:39;;;;;;;0.65;0.65;;;;;;;;;;5039860;28;20029;-79
2022/05/14 13:42:07;;;;;;;1.50;1.10;;;;;;;;;;5039755;28;20403;-76
2022/05/14 13:44:42;;;;;;;1.38;0.80;;;;;;;;;;5055838;28;20492;-77
2022/05/14 13:47:10;;;;;;;1.25;0.60;;;;;;;;;;5046930;28;20029;-78
2022/05/14 13:49:36;;;;;;;1.65;0.63;;;;;;;;;;5041883;28;20033;-80
2022/05/14 13:52:04;;;;;;;0.95;0.88;;;;;;;;;;5047555;28;20037;-85
2022/05/14 13:54:30;;;;;;;3.03;1.92;;;;;;;;;;5053482;28;20083;-82
2022/05/14 13:57:14;;;;;;;1.33;0.82;;;;;;;;;;5035890;28;20109;-79
2022/05/14 13:59:41;;;;;;;0.95;0.85;;;;;;;;;;5044587;28;20037;-80
2022/05/14 14:02:26;;;;;;;1.00;0.73;;;;;;;;;;5050422;28;21031;-74
2022/05/14 14:04:55;;;;;;;0.50;0.50;;;;;;;;;;5047400;28;20053;-74
2022/05/14 14:07:21;;;;;;;0.65;0.65;;;;;;;;;;5037250;28;20478;-75
2022/05/14 14:09:48;;;;;;;1.25;0.43;;;;;;;;;;5048660;28;20035;-75
2022/05/14 14:12:14;;;;;;;1.48;0.77;;;;;;;;;;5039494;28;20151;-75
2022/05/14 14:14:40;;;;;;;1.33;0.82;;;;;;;;;;5039638;28;20116;-74
2022/05/14 14:17:06;;;;;;;1.73;0.63;;;;;;;;;;5040068;28;20128;-75
2022/05/14 14:19:32;;;;;;;7.70;4.20;;;;;;;;;;5043938;28;20379;-75
2022/05/14 14:22:00;;;;;;;7.07;2.45;;;;;;;;;;5042026;28;20033;-75
2022/05/14 14:24:27;;;;;;;4.32;1.27;;;;;;;;;;5037591;28;20091;-76
2022/05/14 14:26:53;;;;;;;1.55;0.95;;;;;;;;;;5041627;28;20436;-76
2022/05/14 14:29:20;;;;;;;4.60;1.20;;;;;;;;;;5046936;28;20387;-77
2022/05/14 14:31:46;;;;;;;1.30;1.20;;;;;;;;;;5043539;28;20313;-77
2022/05/14 14:34:12;;;;;;;0.98;0.90;;;;;;;;;;5042271;28;20502;-77
2022/05/14 14:36:38;;;;;;;3.03;1.38;;;;;;;;;;5046081;28;20040;-76
2022/05/14 14:39:06;;;;;;;0.65;0.65;;;;;;;;;;5043874;28;20033;-77
2022/05/14 14:41:32;;;;;;;1.17;0.57;;;;;;;;;;5045401;28;20025;-77
2022/05/14 14:44:04;;;;;;;8.43;1.70;;;;;;;;;;5046370;28;20120;-76
2022/05/14 14:46:31;;;;;;;1.27;1.00;;;;;;;;;;5045173;28;20025;-76
2022/05/14 14:48:57;;;;;;;1.33;0.98;;;;;;;;;;5042604;28;20025;-76
2022/05/14 14:51:24;;;;;;;0.50;0.50;;;;;;;;;;5048978;28;20029;-75
2022/05/14 14:53:50;;;;;;;2.85;0.75;;;;;;;;;;5051411;28;20035;-75
2022/05/14 14:56:16;;;;;;;0.88;0.85;;;;;;;;;;5037499;28;20476;-76
2022/05/14 14:58:42;;;;;;;1.83;1.42;;;;;;;;;;5047778;28;20075;-76
2022/05/14 15:01:10;;;;;;;1.35;1.25;;;;;;;;;;5051979;28;20391;-77
2022/05/14 15:03:41;;;;;;;2.83;2.15;;;;;;;;;;5052513;28;20178;-75
2022/05/14 15:06:07;;;;;;;;;;;;;;;;;;5040965;28;20136;-76
2022/05/14 15:08:36;;;;;;;1.75;1.20;;;;;;;;;;5041195;28;20023;-75
2022/05/14 15:11:04;;;;;;;1.50;1.17;;;;;;;;;;5042777;28;20463;-76
2022/05/14 15:13:30;;;;;;;2.45;1.08;;;;;;;;;;5051247;28;20654;-76
2022/05/14 15:15:56;;;;;;;0.73;0.70;;;;;;;;;;5046961;28;20027;-76